Currie, Texas
Current Conditions -  °F | °C
As of 3:15 PM on Monday 22 Dec 2014 (Local Time) from KLXY Reporting Station
Clear Clear  
Wind Chill: 70°   Ceiling: Unl
Heat Index: 70°   Visibility: 10mi
Dew Point: 45°   Wind: 13mph
Humidity: 40%   Direction: 240°WSW
Pressure: 29.56"   Gusts: NA
Location:  31.7923°N, 96.3714°W
Report Text: KLXY 222115Z AUTO 24011KT 10SM CLR 21/07 A2956 RMK AO2 T02110071
Loading
Personal Weather Stations






























Interactive Weather Map New forecast layout! Learn more

10-Day Weather Forecast

Advertisements
Track Severe Weather on mobile